Share

Abercrombie, ND

8:15 PM CDT on April 24, 2014 (GMT -0500)
Stern (KBWP) Elev 968 ft | 46.24 °N, 96.61 °W | Change Station

Current weather conditions updated 20 minutes ago

Mostly Cloudy
Mostly Cloudy
46 °F
Feels Like 40 °F
N
15
Wind Variable Wind from NNE
Gusts 22 mph
Sunrise 6:24 AM
Sunset 8:26 PM
Moon Waning Crescent

Tomorrow is forecast to be Much Warmer than today.

Pressure 29.68 in
Visibility 10.0 miles
Clouds Scattered Clouds 3200 ft
Mostly Cloudy 4200 ft
Mostly Cloudy 6000 ft
Windchill 40 °F
Dew Point 36 °F
Humidity 66%
Rainfall 0.80 in
Snow Depth Not available.
UV 0 out of 16
Pollen 6.80 out of 12
Air Quality Not available.
Flu Activity Sporadic
METAR KBWP 250055Z AUTO 02013G19KT 10SM SCT032 BKN042 BKN060 08/02 A2968 RMK AO1 P0007

More Conditions Fewer Conditions

Pressure 29.68 in
Visibility 10.0 miles
Clouds Scattered Clouds 3200 ft
Mostly Cloudy 4200 ft
Mostly Cloudy 6000 ft
Windchill 40 °F
Dew Point 36 °F
Humidity 66%
Rainfall 0.80 in
Snow Depth Not available.
UV 0 out of 16
Pollen 6.80 out of 12
Air Quality Not available.
Flu Activity Sporadic
METAR KBWP 250055Z AUTO 02013G19KT 10SM SCT032 BKN042 BKN060 08/02 A2968 RMK AO1 P0007

More Conditions Fewer Conditions

10-Day Weather Forecast

Almanac

Astronomy

Apr. 24, 2014 Rise Set
Actual Time 6:24 AM CDT 8:26 PM CDT
Civil Twilight 5:51 AM CDT 8:59 PM CDT
Nautical Twilight 5:11 AM CDT 9:39 PM CDT
Astronomical Twilight 4:27 AM CDT 10:24 PM CDT
Moon 3:53 AM CDT (4/24) 3:27 PM CDT (4/24)
Length of Visible Light 15h 07m
Length of Day
14h 02m
Tomorrow will be 3m 1s longer.
Waning Crescent, 21% of the Moon is Illuminated
Today
Waning Crescent
Apr 29
New
May 6
First Quarter
May 14
Full
May 21
Last Quarter

Today's Extremes

State Highs State Lows

Community

  • Jone Runs Falls
    Jone Runs Falls
  • Easter in Shenandoah National Park
    Easter in Shenandoah National Park
  • Sunset at Apalachicola Bay, Florida
    Sunset at Apalachicola Bay, Florida
  • Clouds mov'n in
    Clouds mov'n in
  • Stacked
    Stacked

WunderPhotos

Upload Photos

1,704,782 photos uploaded!

Nearby

Snow Depth

Station Depth Elevation
No new snow has been reported.

Coastal Water Temperatures

Place Temperature
No Stations Reporting

Earthquake Activity

City Distance Mag. Time & Date
No recent earthquake activity has been reported nearby.
Minimum magnitude displayed is 2.5.

Nearby Weather Stations

Station Location Temp. Windchill Dew Point Humidity Wind Precip. Elev Updated Type
NDDOT Wahpeton ND 13 MP 384.5, Mooreton, ND 48 °F 42 °F 45 °F 87% NW  at  16 mph 0.69 in / hr 962 ft 7:09 PM CDT MADIS
Open Plains ND, Wyndmere, ND 46.9 °F 47 °F 43 °F 87% East  at  0.0 mph - / hr 1056 ft 8:06 PM CDT Normal

Show More Stations Show Fewer Stations

What do you think?

We're not finished. Please let us know what you like, what you don't like, and what you are still missing.